createdAt,value
2022-08-17T00:00:43.570Z,20.42
2022-08-17T00:01:52.771Z,20.15
2022-08-17T00:03:13.634Z,21.00
2022-08-17T00:04:20.088Z,21.40
2022-08-17T00:05:21.965Z,19.73
2022-08-17T00:06:29.664Z,18.80
2022-08-17T00:07:31.594Z,21.88
2022-08-17T00:08:36.794Z,20.08
2022-08-17T00:09:38.956Z,19.65
2022-08-17T00:10:41.618Z,20.40
2022-08-17T00:12:40.385Z,19.33
2022-08-17T00:13:11.442Z,17.25
2022-08-17T00:14:18.673Z,19.60
2022-08-17T00:15:22.412Z,19.02
2022-08-17T00:16:56.224Z,19.80
2022-08-17T00:17:55.953Z,20.67
2022-08-17T00:19:08.238Z,17.85
2022-08-17T00:20:12.172Z,18.90
2022-08-17T00:21:16.148Z,20.27
2022-08-17T00:22:34.704Z,29.63
2022-08-17T00:23:38.765Z,20.25
2022-08-17T00:24:46.157Z,19.27
2022-08-17T00:25:48.720Z,20.25
2022-08-17T00:26:50.381Z,20.52
2022-08-17T00:27:53.059Z,23.70
2022-08-17T00:28:56.273Z,20.98
2022-08-17T00:29:59.289Z,21.33
2022-08-17T00:31:01.805Z,21.38
2022-08-17T00:33:23.147Z,23.65
2022-08-17T00:33:30.559Z,22.67
2022-08-17T00:34:32.601Z,20.20
2022-08-17T00:35:35.451Z,19.85
2022-08-17T00:36:37.358Z,24.10
2022-08-17T00:37:39.464Z,19.20
2022-08-17T00:38:42.149Z,28.23
2022-08-17T00:39:46.337Z,24.08
2022-08-17T00:40:55.915Z,20.00
2022-08-17T00:42:01.045Z,25.60
2022-08-17T00:43:26.447Z,19.77
2022-08-17T00:44:30.284Z,26.20
2022-08-17T00:45:32.931Z,25.00
2022-08-17T00:46:39.204Z,19.48
2022-08-17T00:47:41.680Z,20.73
2022-08-17T00:48:44.231Z,17.10
2022-08-17T00:49:46.035Z,18.55
2022-08-17T00:51:19.907Z,22.58
2022-08-17T00:52:24.947Z,17.48
2022-08-17T00:53:29.855Z,18.13
2022-08-17T00:54:41.788Z,18.90
2022-08-17T00:55:45.309Z,20.10
2022-08-17T00:56:51.201Z,18.95
2022-08-17T00:57:58.557Z,16.73
2022-08-17T00:59:02.478Z,19.90
2022-08-17T01:00:10.924Z,17.42
2022-08-17T01:01:21.513Z,22.98
2022-08-17T01:02:26.777Z,19.75
2022-08-17T01:03:29.684Z,21.30
2022-08-17T01:04:32.826Z,17.65
2022-08-17T01:05:38.384Z,20.88
2022-08-17T01:06:49.509Z,21.75
2022-08-17T01:07:53.553Z,22.73
2022-08-17T01:08:58.030Z,17.40
2022-08-17T01:10:03.912Z,18.35
2022-08-17T01:11:07.326Z,19.90
2022-08-17T01:12:10.317Z,20.75
2022-08-17T01:13:12.901Z,19.17
2022-08-17T01:14:14.657Z,19.33
2022-08-17T01:15:16.814Z,18.40
2022-08-17T01:16:23.066Z,20.08
2022-08-17T01:17:24.777Z,18.50
2022-08-17T01:18:27.404Z,20.90
2022-08-17T01:19:35.834Z,20.85
2022-08-17T01:20:48.626Z,18.70
2022-08-17T01:22:00.823Z,20.33
2022-08-17T01:23:02.499Z,18.90
2022-08-17T01:24:04.575Z,20.20
2022-08-17T01:25:08.559Z,19.42
2022-08-17T01:26:10.334Z,19.65
2022-08-17T01:27:14.134Z,19.02
2022-08-17T01:28:52.688Z,24.35
2022-08-17T01:31:59.569Z,21.60
2022-08-17T01:33:01.239Z,20.45
2022-08-17T01:34:10.630Z,22.55
2022-08-17T01:35:12.495Z,18.75
2022-08-17T01:36:14.557Z,18.05
2022-08-17T01:37:17.768Z,20.83
2022-08-17T01:38:19.710Z,21.30
2022-08-17T01:39:31.705Z,22.65
2022-08-17T01:40:37.677Z,22.75
2022-08-17T01:41:41.021Z,18.88
2022-08-17T01:42:51.927Z,16.20
2022-08-17T01:44:04.102Z,18.85
2022-08-17T01:45:20.760Z,17.33
2022-08-17T01:46:29.092Z,33.63
2022-08-17T01:47:31.114Z,21.02
2022-08-17T01:48:36.352Z,16.83
2022-08-17T01:49:38.436Z,18.05
2022-08-17T01:50:42.802Z,19.38
2022-08-17T01:51:44.562Z,17.27
2022-08-17T01:52:49.356Z,26.65
2022-08-17T01:53:55.436Z,16.27
2022-08-17T01:54:57.325Z,19.48
2022-08-17T01:56:05.250Z,29.15
2022-08-17T01:57:07.551Z,17.13
2022-08-17T01:58:09.872Z,19.70
2022-08-17T01:59:12.872Z,21.27
2022-08-17T02:00:14.989Z,17.65
2022-08-17T02:01:22.932Z,22.38
2022-08-17T02:02:30.447Z,19.77
2022-08-17T02:03:36.394Z,18.50
2022-08-17T02:04:38.076Z,20.70
2022-08-17T02:05:40.441Z,19.00
2022-08-17T02:06:54.163Z,18.80
2022-08-17T02:07:59.521Z,18.75
2022-08-17T02:09:03.794Z,16.90
2022-08-17T02:10:19.828Z,21.40
2022-08-17T02:11:22.467Z,16.73
2022-08-17T02:12:38.814Z,20.00
2022-08-17T02:13:41.990Z,16.58
2022-08-17T02:14:44.062Z,18.75
2022-08-17T02:15:46.552Z,19.08
2022-08-17T02:16:48.296Z,21.92
2022-08-17T02:17:50.029Z,24.70
2022-08-17T02:18:56.546Z,17.48
2022-08-17T02:19:58.223Z,18.10
2022-08-17T02:21:00.270Z,18.52
2022-08-17T02:22:01.928Z,16.55
2022-08-17T02:23:04.663Z,17.58
2022-08-17T02:24:15.000Z,17.35
2022-08-17T02:25:19.212Z,20.27
2022-08-17T02:26:24.059Z,19.17
2022-08-17T02:27:28.410Z,21.35
2022-08-17T02:28:30.711Z,21.08
2022-08-17T02:29:32.528Z,19.00
2022-08-17T02:31:01.301Z,18.73
2022-08-17T02:31:58.645Z,18.77
2022-08-17T02:33:00.729Z,21.60
2022-08-17T02:34:06.264Z,19.08
2022-08-17T02:35:08.955Z,20.02
2022-08-17T02:36:12.701Z,17.85
2022-08-17T02:37:17.307Z,19.45
2022-08-17T02:38:18.998Z,18.33
2022-08-17T02:39:20.781Z,20.00
2022-08-17T02:40:35.794Z,19.23
2022-08-17T02:41:39.330Z,20.00
2022-08-17T02:42:44.309Z,19.00
2022-08-17T02:43:45.963Z,18.90
2022-08-17T02:44:47.972Z,18.95
2022-08-17T02:45:49.672Z,23.23
2022-08-17T02:46:53.070Z,18.35
2022-08-17T02:47:54.967Z,18.45
2022-08-17T02:48:57.014Z,20.67
2022-08-17T02:49:58.691Z,23.33
2022-08-17T02:51:01.175Z,21.45
2022-08-17T02:52:04.899Z,21.83
2022-08-17T02:53:06.749Z,21.85
2022-08-17T02:54:41.368Z,20.92
2022-08-17T02:55:34.358Z,18.08
2022-08-17T02:56:36.055Z,19.27
2022-08-17T02:57:37.975Z,23.88
2022-08-17T02:58:39.645Z,25.08
2022-08-17T02:59:48.341Z,21.77
2022-08-17T03:00:50.672Z,21.05
2022-08-17T03:01:52.430Z,18.88
2022-08-17T03:03:19.260Z,20.58
2022-08-17T03:04:22.681Z,16.92
2022-08-17T03:05:27.415Z,21.95
2022-08-17T03:06:29.633Z,26.50
2022-08-17T03:07:31.768Z,19.70
2022-08-17T03:08:34.029Z,18.60
2022-08-17T03:09:35.689Z,23.35
2022-08-17T03:10:37.337Z,27.27
2022-08-17T03:11:39.091Z,19.73
2022-08-17T03:12:42.218Z,19.08
2022-08-17T03:13:43.963Z,15.80
2022-08-17T03:14:46.062Z,19.88
2022-08-17T03:15:48.722Z,21.75
2022-08-17T03:16:50.390Z,22.83
2022-08-17T03:17:53.408Z,17.20
2022-08-17T03:18:55.158Z,23.25
2022-08-17T03:19:57.056Z,19.95
2022-08-17T03:21:00.998Z,19.70
2022-08-17T03:22:35.583Z,17.60
2022-08-17T03:23:29.644Z,22.75
2022-08-17T03:24:32.042Z,21.13
2022-08-17T03:25:37.377Z,21.05
2022-08-17T03:26:40.473Z,24.08
2022-08-17T03:27:42.357Z,19.88
2022-08-17T03:28:49.923Z,19.23
2022-08-17T03:29:51.586Z,25.92
2022-08-17T03:30:53.370Z,20.05
2022-08-17T03:31:55.010Z,19.65
2022-08-17T03:33:00.087Z,20.67
2022-08-17T03:34:01.786Z,21.27
2022-08-17T03:35:03.723Z,21.10
2022-08-17T03:36:06.880Z,23.20
2022-08-17T03:37:08.919Z,20.98
2022-08-17T03:38:15.262Z,20.70
2022-08-17T03:39:17.889Z,21.75
2022-08-17T03:40:37.005Z,22.05
2022-08-17T03:41:42.032Z,20.85
2022-08-17T03:42:44.156Z,19.08
2022-08-17T03:43:46.899Z,18.75
2022-08-17T03:44:52.887Z,19.52
2022-08-17T03:46:27.823Z,22.58
2022-08-17T03:47:55.251Z,22.73
2022-08-17T03:49:15.865Z,22.02
2022-08-17T03:50:37.343Z,22.65
2022-08-17T03:51:57.818Z,21.08
2022-08-17T03:53:18.703Z,19.48
2022-08-17T03:54:39.210Z,18.50
2022-08-17T03:55:59.690Z,19.90
2022-08-17T03:57:03.084Z,17.20
2022-08-17T03:58:04.742Z,18.90
2022-08-17T03:59:06.406Z,17.92
2022-08-17T04:00:22.691Z,16.95
2022-08-17T04:01:24.870Z,21.20
2022-08-17T04:02:31.620Z,23.88
2022-08-17T04:03:35.993Z,22.55
2022-08-17T04:04:39.307Z,19.73
2022-08-17T04:05:41.406Z,19.80
2022-08-17T04:06:43.356Z,21.50
2022-08-17T04:07:45.094Z,18.80
2022-08-17T04:08:46.849Z,22.45
2022-08-17T04:09:49.069Z,20.65
2022-08-17T04:10:50.814Z,21.83
2022-08-17T04:11:53.130Z,23.73
2022-08-17T04:12:55.937Z,23.02
2022-08-17T04:13:57.704Z,21.10
2022-08-17T04:14:59.820Z,21.42
2022-08-17T04:16:01.900Z,19.75
2022-08-17T04:17:06.386Z,21.40
2022-08-17T04:18:08.030Z,19.88
2022-08-17T04:19:12.878Z,18.73
2022-08-17T04:20:17.233Z,18.45
2022-08-17T04:21:20.140Z,18.25
2022-08-17T04:22:32.258Z,17.77
2022-08-17T04:23:36.667Z,24.10
2022-08-17T04:24:38.351Z,20.65
2022-08-17T04:25:43.826Z,21.15
2022-08-17T04:26:50.595Z,20.83
2022-08-17T04:27:56.955Z,27.10
2022-08-17T04:28:59.127Z,19.42
2022-08-17T04:30:01.614Z,22.58
2022-08-17T04:31:03.290Z,22.52
2022-08-17T04:32:05.432Z,22.83
2022-08-17T04:33:10.563Z,22.23
2022-08-17T04:34:12.738Z,22.88
2022-08-17T04:35:19.443Z,26.55
2022-08-17T04:36:22.092Z,24.42
2022-08-17T04:37:23.790Z,22.55
2022-08-17T04:38:32.952Z,27.80
2022-08-17T04:39:34.871Z,28.50
2022-08-17T04:40:56.125Z,21.38
2022-08-17T04:42:06.848Z,17.52
2022-08-17T04:43:11.875Z,21.15
2022-08-17T04:44:13.642Z,22.05
2022-08-17T04:45:39.693Z,34.40
2022-08-17T04:46:41.344Z,22.83
2022-08-17T04:47:43.003Z,23.23
2022-08-17T04:48:48.365Z,24.75
2022-08-17T04:49:50.287Z,21.88
2022-08-17T04:50:52.074Z,19.70
2022-08-17T04:51:55.693Z,24.05
2022-08-17T04:52:58.436Z,22.10
2022-08-17T04:54:04.468Z,25.80
2022-08-17T04:55:06.647Z,24.17
2022-08-17T04:56:11.854Z,27.08
2022-08-17T04:57:18.784Z,22.70
2022-08-17T04:58:21.585Z,23.40
2022-08-17T04:59:23.356Z,28.63
2022-08-17T05:00:25.991Z,20.83
2022-08-17T05:01:30.070Z,24.88
2022-08-17T05:02:32.667Z,22.52
2022-08-17T05:03:35.415Z,23.38
2022-08-17T05:04:37.232Z,26.45
2022-08-17T05:05:43.261Z,21.85
2022-08-17T05:06:46.819Z,21.52
2022-08-17T05:07:50.943Z,23.65
2022-08-17T05:08:53.238Z,24.88
2022-08-17T05:09:54.878Z,23.08
2022-08-17T05:10:57.067Z,22.30
2022-08-17T05:12:02.643Z,33.58
2022-08-17T05:13:05.714Z,24.42
2022-08-17T05:14:07.448Z,23.85
2022-08-17T05:15:16.129Z,20.85
2022-08-17T05:16:19.524Z,27.40
2022-08-17T05:17:21.210Z,26.42
2022-08-17T05:18:24.665Z,25.25
2022-08-17T05:19:26.485Z,27.10
2022-08-17T05:20:28.846Z,27.40
2022-08-17T05:21:30.913Z,26.10
2022-08-17T05:22:32.759Z,27.50
2022-08-17T05:23:42.616Z,23.35
2022-08-17T05:24:53.922Z,30.50
2022-08-17T05:25:58.166Z,23.67
2022-08-17T05:27:06.062Z,25.67
2022-08-17T05:28:09.532Z,21.92
2022-08-17T05:29:11.346Z,23.25
2022-08-17T05:30:14.085Z,22.50
2022-08-17T05:31:16.522Z,25.98
2022-08-17T05:32:38.880Z,18.90
2022-08-17T05:33:46.243Z,24.08
2022-08-17T05:34:48.584Z,22.35
2022-08-17T05:35:54.459Z,22.98
2022-08-17T05:36:56.337Z,21.80
2022-08-17T05:37:58.270Z,26.42
2022-08-17T05:39:00.385Z,25.15
2022-08-17T05:40:02.169Z,26.90
2022-08-17T05:41:06.706Z,21.85
2022-08-17T05:42:09.396Z,24.40
2022-08-17T05:43:17.217Z,23.27
2022-08-17T05:44:18.934Z,21.00
2022-08-17T05:45:54.504Z,22.35
2022-08-17T05:46:48.932Z,23.73
2022-08-17T05:47:51.437Z,25.00
2022-08-17T05:48:59.068Z,26.80
2022-08-17T05:50:02.023Z,25.00
2022-08-17T05:51:22.809Z,25.70
2022-08-17T05:52:30.069Z,28.23
2022-08-17T05:54:09.600Z,23.65
2022-08-17T05:55:25.838Z,29.05
2022-08-17T05:56:33.197Z,29.83
2022-08-17T05:57:39.874Z,24.67
2022-08-17T05:59:06.768Z,21.15
2022-08-17T06:00:30.107Z,21.70
2022-08-17T06:01:52.645Z,23.50
2022-08-17T06:03:07.260Z,25.45
2022-08-17T06:04:36.746Z,27.77
2022-08-17T06:06:05.844Z,23.45
2022-08-17T06:07:21.434Z,27.15
2022-08-17T06:08:35.372Z,28.98
2022-08-17T06:10:12.439Z,27.77
2022-08-17T06:11:20.461Z,25.55
2022-08-17T06:12:47.338Z,27.42
2022-08-17T06:14:09.855Z,23.38
2022-08-17T06:15:26.341Z,29.23
2022-08-17T06:16:35.431Z,26.13
2022-08-17T06:17:37.962Z,23.33
2022-08-17T06:18:46.381Z,32.40
2022-08-17T06:19:54.723Z,21.15
2022-08-17T06:21:07.157Z,19.10
2022-08-17T06:22:12.892Z,24.75
2022-08-17T06:23:22.738Z,24.40
2022-08-17T06:24:40.398Z,23.25
2022-08-17T06:25:49.790Z,19.42
2022-08-17T06:26:53.733Z,19.17
2022-08-17T06:28:08.442Z,25.25
2022-08-17T06:30:09.124Z,21.80
2022-08-17T06:31:20.089Z,23.13
2022-08-17T06:32:22.891Z,18.40
2022-08-17T06:33:37.662Z,24.23
2022-08-17T06:34:42.824Z,23.80
2022-08-17T06:36:15.783Z,20.35
2022-08-17T06:37:51.692Z,26.38
2022-08-17T06:39:31.581Z,22.30
2022-08-17T06:41:11.380Z,18.25
2022-08-17T06:42:54.996Z,22.40
2022-08-17T06:43:51.250Z,19.88
2022-08-17T06:45:03.225Z,22.02
2022-08-17T06:46:31.228Z,20.15
2022-08-17T06:48:06.165Z,20.88
2022-08-17T06:49:28.581Z,21.30
2022-08-17T06:50:42.100Z,20.05
2022-08-17T06:51:51.894Z,16.30
2022-08-17T06:53:17.646Z,20.10
2022-08-17T06:54:36.732Z,20.65
2022-08-17T06:56:01.888Z,19.02
2022-08-17T06:57:23.228Z,17.35
2022-08-17T06:58:29.563Z,20.40
2022-08-17T06:59:55.924Z,19.20
2022-08-17T07:01:10.788Z,22.42
2022-08-17T07:02:20.105Z,21.20
2022-08-17T07:03:59.019Z,19.30
2022-08-17T07:05:07.672Z,21.85
2022-08-17T07:06:21.877Z,18.40
2022-08-17T07:07:42.179Z,18.27
2022-08-17T07:09:02.350Z,22.20
2022-08-17T07:10:04.337Z,18.20
2022-08-17T07:11:13.039Z,17.02
2022-08-17T07:12:18.501Z,17.65
2022-08-17T07:13:33.916Z,17.35
2022-08-17T07:14:59.366Z,17.90
2022-08-17T07:16:13.138Z,19.00
2022-08-17T07:17:18.284Z,15.95
2022-08-17T07:18:20.844Z,18.77
2022-08-17T07:19:31.775Z,23.67
2022-08-17T07:20:34.776Z,16.92
2022-08-17T07:22:03.580Z,17.92
2022-08-17T07:23:26.113Z,18.17
2022-08-17T07:24:30.900Z,16.77
2022-08-17T07:25:33.063Z,17.35
2022-08-17T07:26:34.801Z,17.17
2022-08-17T07:27:51.110Z,17.60
2022-08-17T07:28:56.231Z,15.93
2022-08-17T07:30:03.770Z,17.10
2022-08-17T07:31:13.286Z,22.23
2022-08-17T07:32:18.978Z,15.20
2022-08-17T07:33:30.965Z,19.95
2022-08-17T07:35:11.123Z,18.23
2022-08-17T07:36:29.605Z,19.45
2022-08-17T07:37:34.242Z,22.90
2022-08-17T07:38:54.260Z,17.40
2022-08-17T07:40:15.261Z,16.80
2022-08-17T07:41:20.751Z,17.65
2022-08-17T07:42:22.593Z,16.45
2022-08-17T07:43:26.380Z,18.02
2022-08-17T07:44:31.448Z,16.05
2022-08-17T07:45:53.451Z,16.55
2022-08-17T07:47:14.654Z,15.95
2022-08-17T07:48:21.085Z,17.85
2022-08-17T07:49:31.691Z,17.10
2022-08-17T07:50:33.839Z,18.88
2022-08-17T07:51:37.861Z,17.05
2022-08-17T07:52:47.738Z,16.48
2022-08-17T07:54:09.086Z,16.55
2022-08-17T07:55:34.840Z,18.55
2022-08-17T07:56:45.768Z,16.90
2022-08-17T07:57:57.408Z,15.45
2022-08-17T07:59:27.267Z,16.05
2022-08-17T08:00:37.133Z,15.60
2022-08-17T08:01:41.784Z,19.13
2022-08-17T08:02:47.275Z,18.85
2022-08-17T08:03:51.048Z,15.48
2022-08-17T08:05:06.650Z,16.65
2022-08-17T08:06:23.092Z,15.93
2022-08-17T08:07:30.359Z,16.73
2022-08-17T08:08:40.694Z,17.77
2022-08-17T08:10:00.808Z,16.05
2022-08-17T08:11:11.813Z,17.08
2022-08-17T08:12:38.169Z,15.50
2022-08-17T08:13:43.860Z,14.75
2022-08-17T08:14:56.432Z,20.63
2022-08-17T08:16:16.768Z,17.67
2022-08-17T08:17:34.217Z,18.67
2022-08-17T08:18:55.465Z,18.25
2022-08-17T08:20:00.497Z,17.65
2022-08-17T08:21:30.940Z,19.15
2022-08-17T08:22:43.382Z,19.95
2022-08-17T08:23:50.437Z,17.30
2022-08-17T08:25:21.504Z,17.65
2022-08-17T08:26:44.395Z,18.55
2022-08-17T08:27:57.036Z,16.60
2022-08-17T08:29:47.579Z,14.73
2022-08-17T08:30:58.462Z,16.30
2022-08-17T08:32:39.502Z,18.75
2022-08-17T08:34:09.310Z,20.40
2022-08-17T08:35:55.090Z,20.60
2022-08-17T08:37:17.653Z,20.50
2022-08-17T08:38:37.767Z,21.95
2022-08-17T08:39:52.029Z,16.17
2022-08-17T08:41:12.248Z,18.25
2022-08-17T08:42:55.231Z,23.17
2022-08-17T08:44:11.999Z,14.95
2022-08-17T11:57:29.414Z,17.40
2022-08-17T11:58:33.647Z,15.38
2022-08-17T11:59:45.795Z,16.67
2022-08-17T12:00:50.301Z,17.10
2022-08-17T12:01:57.074Z,17.10
2022-08-17T12:03:28.057Z,15.70
2022-08-17T12:04:33.011Z,20.05
2022-08-17T12:05:35.296Z,16.45
2022-08-17T12:07:08.359Z,17.42
2022-08-17T12:08:18.487Z,15.98
2022-08-17T12:09:27.955Z,18.65
2022-08-17T12:10:32.569Z,16.33
2022-08-17T12:12:15.911Z,19.80
2022-08-17T12:13:30.488Z,18.25
2022-08-17T12:15:08.939Z,17.88
2022-08-17T12:16:10.984Z,14.70
2022-08-17T12:17:39.756Z,15.88
2022-08-17T12:18:42.209Z,16.10
2022-08-17T12:19:43.921Z,17.90
2022-08-17T12:20:56.543Z,19.25
2022-08-17T12:22:25.529Z,20.38
2022-08-17T12:23:45.348Z,19.38
2022-08-17T12:24:54.557Z,16.55
2022-08-17T12:26:11.694Z,19.75
2022-08-17T12:27:46.098Z,15.68
2022-08-17T12:28:50.653Z,18.05
2022-08-17T12:29:58.168Z,21.75
2022-08-17T12:31:15.388Z,16.88
2022-08-17T12:32:22.272Z,17.83
2022-08-17T12:33:28.408Z,20.02
2022-08-17T12:34:39.241Z,17.45
2022-08-17T12:35:41.637Z,17.23
2022-08-17T12:36:53.634Z,18.40
2022-08-17T12:37:59.865Z,15.68
2022-08-17T12:39:13.786Z,22.13
2022-08-17T12:40:22.647Z,16.10
2022-08-17T12:41:43.931Z,14.93
2022-08-17T12:42:59.958Z,14.63
2022-08-17T12:44:13.435Z,16.45
2022-08-17T12:45:46.263Z,15.95
2022-08-17T12:46:48.284Z,17.73
2022-08-17T12:48:07.612Z,15.30
2022-08-17T12:49:22.612Z,15.00
2022-08-17T12:50:29.158Z,17.30
2022-08-17T12:51:31.717Z,15.25
2022-08-17T12:52:37.370Z,16.10
2022-08-17T12:53:53.832Z,18.13
2022-08-17T12:55:02.356Z,16.17
2022-08-17T12:56:11.868Z,16.15
2022-08-17T12:57:22.888Z,19.55
2022-08-17T12:58:30.434Z,15.45
2022-08-17T12:59:33.195Z,16.05
2022-08-17T13:00:38.119Z,14.48
2022-08-17T13:01:42.096Z,16.83
2022-08-17T13:02:48.662Z,17.35
2022-08-17T13:03:55.351Z,17.23
2022-08-17T13:05:00.313Z,19.05
2022-08-17T13:06:06.438Z,14.70
2022-08-17T13:07:08.241Z,15.18
2022-08-17T13:08:17.678Z,15.52
2022-08-17T13:09:36.060Z,15.98
2022-08-17T13:10:43.034Z,17.75
2022-08-17T13:11:53.474Z,16.02
2022-08-17T13:12:55.890Z,20.33
2022-08-17T13:14:09.205Z,18.55
2022-08-17T13:15:21.117Z,15.18
2022-08-17T13:16:27.691Z,15.57
2022-08-17T13:17:35.925Z,16.77
2022-08-17T13:18:44.914Z,17.58
2022-08-17T13:19:51.070Z,16.30
2022-08-17T13:20:54.237Z,14.70
2022-08-17T13:21:59.393Z,15.85
2022-08-17T13:23:11.398Z,15.18
2022-08-17T13:24:38.132Z,18.85
2022-08-17T13:25:40.447Z,16.40
2022-08-17T13:26:42.056Z,16.40
2022-08-17T13:27:44.999Z,17.77
2022-08-17T13:28:49.580Z,16.08
2022-08-17T13:29:55.329Z,15.70
2022-08-17T13:31:27.820Z,16.00
2022-08-17T13:32:35.887Z,19.20
2022-08-17T13:33:44.815Z,17.63
2022-08-17T13:35:12.012Z,17.42
2022-08-17T13:36:10.162Z,16.75
2022-08-17T13:37:26.966Z,17.20
2022-08-17T13:38:45.593Z,14.85
2022-08-17T13:39:47.272Z,14.85
2022-08-17T13:40:53.099Z,15.25
2022-08-17T13:41:56.064Z,15.88
2022-08-17T13:42:58.486Z,17.05
2022-08-17T13:44:00.985Z,16.60
2022-08-17T13:45:02.768Z,16.48
2022-08-17T13:46:31.090Z,16.35
2022-08-17T13:47:33.254Z,17.98
2022-08-17T13:48:35.158Z,19.70
2022-08-17T13:49:48.417Z,17.73
2022-08-17T13:50:56.873Z,15.68
2022-08-17T13:51:58.954Z,16.13
2022-08-17T13:53:14.942Z,16.88
2022-08-17T13:54:34.990Z,15.68
2022-08-17T13:55:36.740Z,15.40
2022-08-17T13:57:14.676Z,16.98
2022-08-17T13:58:25.852Z,17.17
2022-08-17T13:59:53.346Z,17.15
2022-08-17T14:00:58.103Z,15.20
2022-08-17T14:02:00.115Z,17.48
2022-08-17T14:03:04.024Z,16.98
2022-08-17T14:04:18.003Z,18.33
2022-08-17T14:05:20.894Z,16.80
2022-08-17T14:06:51.518Z,16.05
2022-08-17T14:08:01.233Z,15.45
2022-08-17T14:09:04.255Z,14.65
2022-08-17T14:10:13.601Z,15.45
2022-08-17T14:11:17.289Z,18.10
2022-08-17T14:12:24.754Z,15.68
2022-08-17T14:13:26.585Z,17.00
2022-08-17T14:14:29.284Z,15.75
2022-08-17T14:15:53.976Z,15.75
2022-08-17T14:16:54.300Z,15.20
2022-08-17T14:17:56.069Z,16.30
2022-08-17T14:18:57.778Z,16.98
2022-08-17T14:19:59.822Z,18.60
2022-08-17T14:21:01.498Z,14.68
2022-08-17T14:22:03.978Z,15.90
2022-08-17T14:23:06.067Z,16.50
2022-08-17T14:24:10.961Z,14.32
2022-08-17T14:25:15.505Z,15.40
2022-08-17T14:26:17.754Z,16.85
2022-08-17T14:27:20.537Z,15.93
2022-08-17T14:28:22.210Z,16.40
2022-08-17T14:29:26.018Z,15.20
2022-08-17T14:30:29.703Z,16.42
2022-08-17T14:31:36.828Z,19.90
2022-08-17T14:32:41.289Z,18.13
2022-08-17T14:33:42.994Z,17.75
2022-08-17T14:34:46.064Z,23.33
2022-08-17T14:35:48.147Z,16.38
2022-08-17T14:36:49.944Z,16.83
2022-08-17T14:37:52.734Z,18.20
2022-08-17T14:38:54.685Z,17.55
2022-08-17T14:40:01.520Z,17.00
2022-08-17T14:41:04.645Z,15.00
2022-08-17T14:42:06.495Z,16.42
2022-08-17T14:43:08.768Z,15.82
2022-08-17T14:44:12.435Z,16.13
2022-08-17T14:45:31.695Z,16.95
2022-08-17T14:46:34.813Z,16.35
2022-08-17T14:47:38.746Z,16.35
2022-08-17T14:48:42.862Z,17.23
2022-08-17T14:49:48.401Z,16.42
2022-08-17T14:50:50.108Z,16.00
2022-08-17T14:51:52.004Z,14.68
2022-08-17T14:52:56.087Z,15.90
2022-08-17T14:53:59.932Z,14.60
2022-08-17T14:55:02.293Z,16.00
2022-08-17T14:56:04.608Z,17.38
2022-08-17T14:57:32.883Z,14.63
2022-08-17T14:58:29.642Z,18.77
2022-08-17T14:59:32.077Z,15.68
2022-08-17T15:00:34.085Z,15.10
2022-08-17T15:01:36.799Z,16.52
2022-08-17T15:04:11.606Z,18.25
2022-08-17T15:05:16.501Z,15.27
2022-08-17T15:06:18.133Z,16.30
2022-08-17T15:07:20.477Z,19.00
2022-08-17T15:08:28.268Z,19.63
2022-08-17T15:09:30.812Z,15.48
2022-08-17T15:10:39.305Z,16.83
2022-08-17T15:11:40.998Z,17.45
2022-08-17T15:12:42.898Z,14.90
2022-08-17T15:13:52.058Z,16.20
2022-08-17T15:14:54.763Z,15.93
2022-08-17T15:15:59.184Z,16.98
2022-08-17T15:17:01.130Z,16.08
2022-08-17T15:18:03.361Z,15.55
2022-08-17T15:19:07.358Z,14.95
2022-08-17T15:20:14.585Z,15.32
2022-08-17T15:21:19.246Z,16.05
2022-08-17T15:22:25.259Z,14.57
2022-08-17T15:23:27.196Z,15.50
2022-08-17T15:24:28.906Z,16.90
2022-08-17T15:25:32.616Z,17.52
2022-08-17T15:26:36.763Z,18.38
2022-08-17T15:27:38.649Z,16.10
2022-08-17T15:28:40.310Z,14.10
2022-08-17T15:29:42.008Z,15.48
2022-08-17T15:30:44.905Z,16.30
2022-08-17T15:31:46.570Z,15.65
2022-08-17T15:32:51.148Z,17.63
2022-08-17T15:33:56.357Z,18.35
2022-08-17T15:35:00.271Z,16.20
2022-08-17T15:36:06.375Z,16.08
2022-08-17T15:37:08.059Z,15.73
2022-08-17T15:38:12.954Z,15.02
2022-08-17T15:39:14.610Z,13.73
2022-08-17T15:40:21.335Z,17.35
2022-08-17T15:41:23.040Z,16.30
2022-08-17T15:42:25.269Z,14.77
2022-08-17T15:43:32.575Z,17.75
2022-08-17T15:44:39.670Z,16.17
2022-08-17T15:45:41.852Z,15.70
2022-08-17T15:46:43.837Z,19.70
2022-08-17T15:47:46.598Z,16.52
2022-08-17T15:48:51.136Z,19.45
2022-08-17T15:49:57.968Z,16.55
2022-08-17T15:51:01.633Z,20.63
2022-08-17T15:52:19.343Z,16.52
2022-08-17T15:53:20.997Z,18.20
2022-08-17T15:54:23.525Z,16.05
2022-08-17T15:55:27.823Z,15.63
2022-08-17T15:56:31.268Z,16.23
2022-08-17T15:57:33.803Z,19.13
2022-08-17T15:58:37.852Z,15.38
2022-08-17T15:59:40.323Z,15.73
2022-08-17T16:00:49.389Z,16.35
2022-08-17T16:03:13.737Z,16.23
2022-08-17T16:03:58.318Z,14.43
2022-08-17T16:04:44.420Z,15.45
2022-08-17T16:05:50.189Z,14.68
2022-08-17T16:06:52.286Z,16.00
2022-08-17T16:07:55.386Z,14.85
2022-08-17T16:08:57.704Z,16.73
2022-08-17T16:09:59.437Z,17.50
2022-08-17T16:11:02.817Z,14.98
2022-08-17T16:12:13.204Z,17.95
2022-08-17T16:13:17.410Z,14.40
2022-08-17T16:14:19.682Z,18.20
2022-08-17T16:15:21.467Z,15.30
2022-08-17T16:16:23.735Z,15.77
2022-08-17T16:17:39.027Z,16.90
2022-08-17T16:18:44.993Z,15.18
2022-08-17T16:19:46.880Z,18.85
2022-08-17T16:20:48.805Z,16.40
2022-08-17T16:21:50.535Z,15.63
2022-08-17T16:22:52.566Z,14.85
2022-08-17T16:24:01.201Z,17.15
2022-08-17T16:25:07.445Z,16.20
2022-08-17T16:26:09.089Z,16.40
2022-08-17T16:27:11.699Z,15.43
2022-08-17T16:28:16.397Z,16.27
2022-08-17T16:29:18.288Z,17.58
2022-08-17T16:30:22.752Z,18.17
2022-08-17T16:31:24.511Z,14.27
2022-08-17T16:32:31.956Z,18.70
2022-08-17T16:33:34.938Z,17.40
2022-08-17T16:34:36.645Z,16.35
2022-08-17T16:35:38.884Z,15.93
2022-08-17T16:36:41.560Z,14.73
2022-08-17T16:37:57.124Z,14.43
2022-08-17T16:39:01.357Z,16.63
2022-08-17T16:40:05.905Z,15.48
2022-08-17T16:41:07.871Z,14.90
2022-08-17T16:42:27.163Z,17.50
2022-08-17T16:43:29.987Z,16.13
2022-08-17T16:44:32.273Z,16.23
2022-08-17T16:45:36.486Z,16.13
2022-08-17T16:46:39.948Z,18.75
2022-08-17T16:47:49.934Z,16.48
2022-08-17T16:48:52.020Z,15.63
2022-08-17T16:49:53.820Z,15.70
2022-08-17T16:51:03.503Z,16.05
2022-08-17T16:52:10.330Z,18.35
2022-08-17T16:53:18.909Z,15.65
2022-08-17T16:54:22.083Z,16.48
2022-08-17T16:55:23.960Z,14.48
2022-08-17T16:56:25.778Z,14.55
2022-08-17T16:57:29.742Z,16.42
2022-08-17T16:58:31.386Z,17.23
2022-08-17T16:59:40.708Z,17.23
2022-08-17T17:00:45.252Z,16.02
2022-08-17T17:01:47.765Z,16.00
2022-08-17T17:02:49.768Z,20.80
2022-08-17T17:03:58.163Z,14.20
2022-08-17T17:05:09.187Z,16.60
2022-08-17T17:06:39.685Z,16.98
2022-08-17T17:08:00.774Z,16.10
2022-08-17T17:09:16.334Z,16.55
2022-08-17T17:10:22.505Z,16.27
2022-08-17T17:11:24.206Z,17.13
2022-08-17T17:13:00.837Z,15.35
2022-08-17T17:13:57.817Z,19.00
2022-08-17T17:15:01.644Z,16.25
2022-08-17T17:16:18.590Z,22.73
2022-08-17T17:17:46.554Z,16.92
2022-08-17T17:19:15.724Z,20.10
2022-08-17T17:20:28.924Z,17.05
2022-08-17T17:21:44.081Z,19.10
2022-08-17T17:23:00.777Z,19.67
2022-08-17T17:24:13.114Z,25.95
2022-08-17T17:25:36.557Z,16.85
2022-08-17T17:27:02.857Z,17.13
2022-08-17T17:28:26.178Z,17.50
2022-08-17T17:29:48.660Z,16.17
2022-08-17T17:31:24.840Z,18.48
2022-08-17T17:32:45.493Z,20.40
2022-08-17T17:33:52.838Z,20.80
2022-08-17T17:35:05.488Z,16.63
2022-08-17T17:36:22.388Z,20.08
2022-08-17T17:37:32.316Z,16.27
2022-08-17T17:38:52.148Z,17.17
2022-08-17T17:39:58.029Z,17.10
2022-08-17T17:41:14.113Z,18.08
2022-08-17T17:42:20.694Z,16.23
2022-08-17T17:43:38.808Z,16.90
2022-08-17T17:44:46.678Z,15.98
2022-08-17T17:45:51.088Z,17.98
2022-08-17T17:46:58.153Z,15.40
2022-08-17T17:47:59.839Z,16.70
2022-08-17T17:49:01.558Z,18.10
2022-08-17T17:50:05.874Z,17.17
2022-08-17T17:52:08.810Z,15.68
2022-08-17T17:53:02.893Z,16.83
2022-08-17T17:54:20.433Z,21.67
2022-08-17T17:55:41.127Z,16.95
2022-08-17T17:56:46.062Z,15.73
2022-08-17T17:58:06.441Z,16.27
2022-08-17T17:59:13.014Z,21.52
2022-08-17T18:00:23.537Z,17.15
2022-08-17T18:01:44.948Z,15.40